Huvudsida
METAR-TAF:

METAR-TAF

Flygplatser :

Florianópolis-Hercílio Luz International Airport

Florianópolis, Santa Catarina, Brasilien

latitud: 27-40S, longitud: 048-33W, höjd: 5 m

Aktuellt väderrapport

Denna rapport gjordes för 57 minuter sedan, klockan 12:00 UTC
Vind 10 kt från ost/nordost
Temperatur 22°C
Fuktighet 88%
Tryck 1020 hPa
Sikt 10 km eller mer
Brutna moln på en höjd av 2300 ft
Brutna moln på en höjd av 3300 ft

METAR: SBFL 121200Z 07010KT 9999 BKN023 BKN033 22/20 Q1020

Tid: 10:57 (12:57 UTC)

Väderprognos

Denna rapport gjordes för 3 timmar och 31 minuter sedan, klockan 09:26 UTC
Prognos gäller från 12 kl. 12 UTC till 13 kl. 12 UTC
Vind 8 kt från ost
Sikt 10 km eller mer
Spridda moln på en höjd av 3000 ft
Sannolikhet 40% :
Temporärt
från 12 kl. 22 UTC till 13 kl. 10 UTC
Sikt: 8000 m
Brutna moln på en höjd av 2500 ft
regn

TAF: SBFL 120926Z 1212/1312 08008KT 9999 SCT030 TX23/1216Z TN20/1306Z PROB40 TEMPO 1222/1310 8000 RA BKN025 RMK PDW

Aktuella väderrapporter och prognoser från 4000 flygplatser (METAR- och TAF-rapporter).

De tillgängliga stationerna syns som gula och röda prickar på kartan.

För musen över prickarna för att se namnen på stationerna.

Klicka sedan för att få väderrapporter och prognoser.

För att ändra kartan: Klicka på de gröna knapparna med ett svart kors på för att zooma in; den gröna knappen med ett streck på för att zooma ut; eller på de gröna pilarna för angränsande kartor.


METAR-TAF: